sensor_id;sensor_type;location;lat;lon;timestamp;P1;durP1;ratioP1;P2;durP2;ratioP2
46363;SDS011;32071;49.036;9.344;2024-02-23T00:01:04;0.50;;;0.30;;
46363;SDS011;32071;49.036;9.344;2024-02-23T00:03:30;2.90;;;2.17;;
46363;SDS011;32071;49.036;9.344;2024-02-23T00:05:57;0.50;;;0.50;;
46363;SDS011;32071;49.036;9.344;2024-02-23T00:08:23;1.23;;;0.67;;
46363;SDS011;32071;49.036;9.344;2024-02-23T00:10:49;0.77;;;0.30;;
46363;SDS011;32071;49.036;9.344;2024-02-23T00:13:15;0.50;;;0.40;;
46363;SDS011;32071;49.036;9.344;2024-02-23T00:15:41;0.40;;;0.40;;
46363;SDS011;32071;49.036;9.344;2024-02-23T00:18:06;1.80;;;0.50;;
46363;SDS011;32071;49.036;9.344;2024-02-23T00:20:33;0.50;;;0.30;;
46363;SDS011;32071;49.036;9.344;2024-02-23T00:22:58;0.63;;;0.53;;
46363;SDS011;32071;49.036;9.344;2024-02-23T00:25:24;1.90;;;0.40;;
46363;SDS011;32071;49.036;9.344;2024-02-23T00:27:50;1.97;;;0.57;;
46363;SDS011;32071;49.036;9.344;2024-02-23T00:30:15;1.53;;;0.47;;
46363;SDS011;32071;49.036;9.344;2024-02-23T00:32:41;2.43;;;0.50;;
46363;SDS011;32071;49.036;9.344;2024-02-23T00:35:06;1.43;;;0.40;;
46363;SDS011;32071;49.036;9.344;2024-02-23T00:37:32;1.60;;;0.57;;
46363;SDS011;32071;49.036;9.344;2024-02-23T00:40:01;3.70;;;0.50;;
46363;SDS011;32071;49.036;9.344;2024-02-23T00:42:30;3.90;;;0.50;;
46363;SDS011;32071;49.036;9.344;2024-02-23T00:44:56;1.00;;;0.60;;
46363;SDS011;32071;49.036;9.344;2024-02-23T00:47:21;0.60;;;0.43;;
46363;SDS011;32071;49.036;9.344;2024-02-23T00:49:47;1.23;;;0.70;;
46363;SDS011;32071;49.036;9.344;2024-02-23T00:52:14;1.80;;;0.57;;
46363;SDS011;32071;49.036;9.344;2024-02-23T00:54:40;1.13;;;0.53;;
46363;SDS011;32071;49.036;9.344;2024-02-23T00:57:06;1.27;;;0.57;;
46363;SDS011;32071;49.036;9.344;2024-02-23T00:59:32;1.63;;;0.50;;
46363;SDS011;32071;49.036;9.344;2024-02-23T01:01:57;1.50;;;0.60;;
46363;SDS011;32071;49.036;9.344;2024-02-23T01:04:23;1.37;;;0.70;;
46363;SDS011;32071;49.036;9.344;2024-02-23T01:06:48;3.20;;;0.80;;
46363;SDS011;32071;49.036;9.344;2024-02-23T01:09:14;0.87;;;0.67;;
46363;SDS011;32071;49.036;9.344;2024-02-23T01:11:41;1.20;;;0.60;;
46363;SDS011;32071;49.036;9.344;2024-02-23T01:14:07;3.83;;;0.73;;
46363;SDS011;32071;49.036;9.344;2024-02-23T01:16:33;5.00;;;1.00;;
46363;SDS011;32071;49.036;9.344;2024-02-23T01:18:58;2.43;;;0.50;;
46363;SDS011;32071;49.036;9.344;2024-02-23T01:21:24;1.57;;;0.40;;
46363;SDS011;32071;49.036;9.344;2024-02-23T01:23:49;1.43;;;0.53;;
46363;SDS011;32071;49.036;9.344;2024-02-23T01:26:15;6.43;;;0.80;;
46363;SDS011;32071;49.036;9.344;2024-02-23T01:28:40;2.47;;;0.50;;
46363;SDS011;32071;49.036;9.344;2024-02-23T01:31:09;1.43;;;0.50;;
46363;SDS011;32071;49.036;9.344;2024-02-23T01:33:36;2.23;;;0.50;;
46363;SDS011;32071;49.036;9.344;2024-02-23T01:36:03;0.73;;;0.50;;
46363;SDS011;32071;49.036;9.344;2024-02-23T01:38:32;1.97;;;0.80;;
46363;SDS011;32071;49.036;9.344;2024-02-23T01:40:58;0.80;;;0.70;;
46363;SDS011;32071;49.036;9.344;2024-02-23T01:43:24;3.37;;;0.67;;
46363;SDS011;32071;49.036;9.344;2024-02-23T01:45:50;4.97;;;0.60;;
46363;SDS011;32071;49.036;9.344;2024-02-23T01:48:16;2.47;;;0.50;;
46363;SDS011;32071;49.036;9.344;2024-02-23T01:50:43;3.13;;;0.80;;
46363;SDS011;32071;49.036;9.344;2024-02-23T01:53:09;8.23;;;3.90;;
46363;SDS011;32071;49.036;9.344;2024-02-23T01:55:36;2.73;;;0.80;;
46363;SDS011;32071;49.036;9.344;2024-02-23T01:58:02;1.90;;;0.70;;
46363;SDS011;32071;49.036;9.344;2024-02-23T02:00:29;1.17;;;0.60;;
46363;SDS011;32071;49.036;9.344;2024-02-23T02:02:56;0.80;;;0.50;;
46363;SDS011;32071;49.036;9.344;2024-02-23T02:05:22;3.23;;;0.87;;
46363;SDS011;32071;49.036;9.344;2024-02-23T02:07:48;4.93;;;0.80;;
46363;SDS011;32071;49.036;9.344;2024-02-23T02:10:18;2.40;;;0.80;;
46363;SDS011;32071;49.036;9.344;2024-02-23T02:12:45;2.20;;;0.90;;
46363;SDS011;32071;49.036;9.344;2024-02-23T02:15:12;6.17;;;0.73;;
46363;SDS011;32071;49.036;9.344;2024-02-23T02:17:38;0.90;;;0.50;;
46363;SDS011;32071;49.036;9.344;2024-02-23T02:20:03;1.80;;;0.70;;
46363;SDS011;32071;49.036;9.344;2024-02-23T02:22:31;3.10;;;0.80;;
46363;SDS011;32071;49.036;9.344;2024-02-23T02:25:00;1.90;;;0.70;;
46363;SDS011;32071;49.036;9.344;2024-02-23T02:27:25;1.80;;;0.70;;
46363;SDS011;32071;49.036;9.344;2024-02-23T02:29:51;1.50;;;0.90;;
46363;SDS011;32071;49.036;9.344;2024-02-23T02:32:17;0.90;;;0.50;;
46363;SDS011;32071;49.036;9.344;2024-02-23T02:34:43;3.30;;;0.80;;
46363;SDS011;32071;49.036;9.344;2024-02-23T02:37:08;4.53;;;0.80;;
46363;SDS011;32071;49.036;9.344;2024-02-23T02:39:34;1.67;;;0.77;;
46363;SDS011;32071;49.036;9.344;2024-02-23T02:42:00;1.93;;;0.80;;
46363;SDS011;32071;49.036;9.344;2024-02-23T02:44:25;1.70;;;0.47;;
46363;SDS011;32071;49.036;9.344;2024-02-23T02:46:56;0.50;;;0.50;;
46363;SDS011;32071;49.036;9.344;2024-02-23T02:49:22;1.10;;;0.80;;
46363;SDS011;32071;49.036;9.344;2024-02-23T02:51:48;2.10;;;0.70;;
46363;SDS011;32071;49.036;9.344;2024-02-23T02:54:13;2.70;;;0.70;;
46363;SDS011;32071;49.036;9.344;2024-02-23T02:56:42;4.57;;;0.77;;
46363;SDS011;32071;49.036;9.344;2024-02-23T02:59:08;1.80;;;0.50;;
46363;SDS011;32071;49.036;9.344;2024-02-23T03:01:35;2.33;;;0.60;;
46363;SDS011;32071;49.036;9.344;2024-02-23T03:04:00;1.33;;;0.70;;
46363;SDS011;32071;49.036;9.344;2024-02-23T03:06:26;2.10;;;0.50;;
46363;SDS011;32071;49.036;9.344;2024-02-23T03:08:51;1.73;;;0.50;;
46363;SDS011;32071;49.036;9.344;2024-02-23T03:11:17;1.30;;;0.53;;
46363;SDS011;32071;49.036;9.344;2024-02-23T03:13:42;4.10;;;0.77;;
46363;SDS011;32071;49.036;9.344;2024-02-23T03:16:17;0.47;;;0.47;;
46363;SDS011;32071;49.036;9.344;2024-02-23T03:18:43;0.50;;;0.40;;
46363;SDS011;32071;49.036;9.344;2024-02-23T03:21:09;2.00;;;0.90;;
46363;SDS011;32071;49.036;9.344;2024-02-23T03:23:35;1.70;;;0.60;;
46363;SDS011;32071;49.036;9.344;2024-02-23T03:26:01;1.20;;;0.40;;
46363;SDS011;32071;49.036;9.344;2024-02-23T03:28:27;1.67;;;0.60;;
46363;SDS011;32071;49.036;9.344;2024-02-23T03:30:53;0.60;;;0.40;;
46363;SDS011;32071;49.036;9.344;2024-02-23T03:33:19;3.73;;;0.73;;
46363;SDS011;32071;49.036;9.344;2024-02-23T03:35:44;1.73;;;0.80;;
46363;SDS011;32071;49.036;9.344;2024-02-23T03:38:10;0.73;;;0.60;;
46363;SDS011;32071;49.036;9.344;2024-02-23T03:40:35;1.03;;;0.50;;
46363;SDS011;32071;49.036;9.344;2024-02-23T03:43:01;1.07;;;0.60;;
46363;SDS011;32071;49.036;9.344;2024-02-23T03:45:27;0.90;;;0.50;;
46363;SDS011;32071;49.036;9.344;2024-02-23T03:47:53;0.70;;;0.60;;
46363;SDS011;32071;49.036;9.344;2024-02-23T03:50:18;1.43;;;0.40;;
46363;SDS011;32071;49.036;9.344;2024-02-23T03:52:44;0.73;;;0.30;;
46363;SDS011;32071;49.036;9.344;2024-02-23T03:55:10;0.60;;;0.47;;
46363;SDS011;32071;49.036;9.344;2024-02-23T03:57:35;0.80;;;0.67;;
46363;SDS011;32071;49.036;9.344;2024-02-23T04:00:01;0.80;;;0.70;;
46363;SDS011;32071;49.036;9.344;2024-02-23T04:02:27;1.80;;;0.70;;
46363;SDS011;32071;49.036;9.344;2024-02-23T04:04:54;1.60;;;0.63;;
46363;SDS011;32071;49.036;9.344;2024-02-23T04:07:20;0.90;;;0.50;;
46363;SDS011;32071;49.036;9.344;2024-02-23T04:09:45;1.17;;;0.73;;
46363;SDS011;32071;49.036;9.344;2024-02-23T04:12:17;1.63;;;1.03;;
46363;SDS011;32071;49.036;9.344;2024-02-23T04:14:48;3.50;;;0.80;;
46363;SDS011;32071;49.036;9.344;2024-02-23T04:17:14;2.47;;;1.70;;
46363;SDS011;32071;49.036;9.344;2024-02-23T04:19:40;1.90;;;0.73;;
46363;SDS011;32071;49.036;9.344;2024-02-23T04:22:06;0.80;;;0.60;;
46363;SDS011;32071;49.036;9.344;2024-02-23T04:24:36;2.77;;;0.70;;
46363;SDS011;32071;49.036;9.344;2024-02-23T04:27:05;1.17;;;0.87;;
46363;SDS011;32071;49.036;9.344;2024-02-23T04:29:32;1.93;;;0.77;;
46363;SDS011;32071;49.036;9.344;2024-02-23T04:31:59;2.30;;;0.77;;
46363;SDS011;32071;49.036;9.344;2024-02-23T04:34:25;1.90;;;0.70;;
46363;SDS011;32071;49.036;9.344;2024-02-23T04:36:50;1.50;;;0.70;;
46363;SDS011;32071;49.036;9.344;2024-02-23T04:39:16;1.93;;;1.00;;
46363;SDS011;32071;49.036;9.344;2024-02-23T04:41:41;1.20;;;1.00;;
46363;SDS011;32071;49.036;9.344;2024-02-23T04:44:07;0.70;;;0.60;;
46363;SDS011;32071;49.036;9.344;2024-02-23T04:46:32;2.00;;;0.73;;
46363;SDS011;32071;49.036;9.344;2024-02-23T04:48:59;2.47;;;1.07;;
46363;SDS011;32071;49.036;9.344;2024-02-23T04:51:25;2.93;;;0.70;;
46363;SDS011;32071;49.036;9.344;2024-02-23T04:53:50;2.53;;;0.93;;
46363;SDS011;32071;49.036;9.344;2024-02-23T04:56:16;1.27;;;0.60;;
46363;SDS011;32071;49.036;9.344;2024-02-23T04:58:41;0.80;;;0.70;;
46363;SDS011;32071;49.036;9.344;2024-02-23T05:01:08;1.77;;;0.70;;
46363;SDS011;32071;49.036;9.344;2024-02-23T05:03:33;1.53;;;0.97;;
46363;SDS011;32071;49.036;9.344;2024-02-23T05:05:59;2.20;;;0.80;;
46363;SDS011;32071;49.036;9.344;2024-02-23T05:08:25;2.10;;;0.60;;
46363;SDS011;32071;49.036;9.344;2024-02-23T05:10:52;0.50;;;0.50;;
46363;SDS011;32071;49.036;9.344;2024-02-23T05:13:18;3.23;;;0.70;;
46363;SDS011;32071;49.036;9.344;2024-02-23T05:15:43;4.00;;;0.93;;
46363;SDS011;32071;49.036;9.344;2024-02-23T05:18:09;0.90;;;0.40;;
46363;SDS011;32071;49.036;9.344;2024-02-23T05:20:35;1.10;;;0.80;;
46363;SDS011;32071;49.036;9.344;2024-02-23T05:23:00;4.00;;;0.80;;
46363;SDS011;32071;49.036;9.344;2024-02-23T05:25:26;1.20;;;0.70;;
46363;SDS011;32071;49.036;9.344;2024-02-23T05:27:52;0.93;;;0.50;;
46363;SDS011;32071;49.036;9.344;2024-02-23T05:30:17;0.80;;;0.70;;
46363;SDS011;32071;49.036;9.344;2024-02-23T05:32:43;2.17;;;0.80;;
46363;SDS011;32071;49.036;9.344;2024-02-23T05:35:08;2.40;;;0.70;;
46363;SDS011;32071;49.036;9.344;2024-02-23T05:37:35;1.20;;;0.97;;
46363;SDS011;32071;49.036;9.344;2024-02-23T05:40:02;4.53;;;2.00;;
46363;SDS011;32071;49.036;9.344;2024-02-23T05:42:31;5.37;;;1.77;;
46363;SDS011;32071;49.036;9.344;2024-02-23T05:44:57;3.30;;;1.30;;
46363;SDS011;32071;49.036;9.344;2024-02-23T05:47:23;4.83;;;2.13;;
46363;SDS011;32071;49.036;9.344;2024-02-23T05:49:50;2.90;;;1.50;;
46363;SDS011;32071;49.036;9.344;2024-02-23T05:52:15;2.17;;;1.13;;
46363;SDS011;32071;49.036;9.344;2024-02-23T05:54:41;1.73;;;1.20;;
46363;SDS011;32071;49.036;9.344;2024-02-23T05:57:06;0.97;;;0.97;;
46363;SDS011;32071;49.036;9.344;2024-02-23T05:59:32;2.83;;;1.23;;
46363;SDS011;32071;49.036;9.344;2024-02-23T06:01:58;1.87;;;1.13;;
46363;SDS011;32071;49.036;9.344;2024-02-23T06:04:23;4.30;;;0.77;;
46363;SDS011;32071;49.036;9.344;2024-02-23T06:06:49;3.90;;;0.73;;
46363;SDS011;32071;49.036;9.344;2024-02-23T06:09:15;4.83;;;0.93;;
46363;SDS011;32071;49.036;9.344;2024-02-23T06:11:40;1.63;;;0.80;;
46363;SDS011;32071;49.036;9.344;2024-02-23T06:14:07;2.03;;;0.90;;
46363;SDS011;32071;49.036;9.344;2024-02-23T06:16:33;2.60;;;1.20;;
46363;SDS011;32071;49.036;9.344;2024-02-23T06:18:58;1.20;;;0.70;;
46363;SDS011;32071;49.036;9.344;2024-02-23T06:21:24;0.50;;;0.50;;
46363;SDS011;32071;49.036;9.344;2024-02-23T06:23:50;1.80;;;0.50;;
46363;SDS011;32071;49.036;9.344;2024-02-23T06:26:15;2.50;;;0.90;;
46363;SDS011;32071;49.036;9.344;2024-02-23T06:28:41;1.17;;;0.57;;
46363;SDS011;32071;49.036;9.344;2024-02-23T06:31:07;2.13;;;0.50;;
46363;SDS011;32071;49.036;9.344;2024-02-23T06:33:34;2.23;;;0.53;;
46363;SDS011;32071;49.036;9.344;2024-02-23T06:35:59;3.80;;;0.83;;
46363;SDS011;32071;49.036;9.344;2024-02-23T06:38:25;0.77;;;0.40;;
46363;SDS011;32071;49.036;9.344;2024-02-23T06:40:51;1.10;;;0.70;;
46363;SDS011;32071;49.036;9.344;2024-02-23T06:43:17;0.50;;;0.50;;
46363;SDS011;32071;49.036;9.344;2024-02-23T06:45:43;1.80;;;0.50;;
46363;SDS011;32071;49.036;9.344;2024-02-23T06:48:09;2.40;;;0.53;;
46363;SDS011;32071;49.036;9.344;2024-02-23T06:50:35;3.13;;;0.70;;
46363;SDS011;32071;49.036;9.344;2024-02-23T06:53:00;1.33;;;0.87;;
46363;SDS011;32071;49.036;9.344;2024-02-23T06:55:27;2.33;;;0.93;;
46363;SDS011;32071;49.036;9.344;2024-02-23T06:57:53;2.17;;;1.20;;
46363;SDS011;32071;49.036;9.344;2024-02-23T07:00:20;1.17;;;0.60;;
46363;SDS011;32071;49.036;9.344;2024-02-23T07:02:46;1.90;;;1.03;;
46363;SDS011;32071;49.036;9.344;2024-02-23T07:05:12;2.47;;;1.20;;
46363;SDS011;32071;49.036;9.344;2024-02-23T07:07:39;6.10;;;0.93;;
46363;SDS011;32071;49.036;9.344;2024-02-23T07:10:05;1.00;;;1.00;;
46363;SDS011;32071;49.036;9.344;2024-02-23T07:12:31;0.97;;;0.70;;
46363;SDS011;32071;49.036;9.344;2024-02-23T07:14:57;3.37;;;0.90;;
46363;SDS011;32071;49.036;9.344;2024-02-23T07:17:23;1.60;;;0.80;;
46363;SDS011;32071;49.036;9.344;2024-02-23T07:19:48;1.37;;;1.00;;
46363;SDS011;32071;49.036;9.344;2024-02-23T07:22:15;2.23;;;1.00;;
46363;SDS011;32071;49.036;9.344;2024-02-23T07:24:42;2.30;;;1.40;;
46363;SDS011;32071;49.036;9.344;2024-02-23T07:27:08;5.20;;;1.60;;
46363;SDS011;32071;49.036;9.344;2024-02-23T07:29:34;2.80;;;1.67;;
46363;SDS011;32071;49.036;9.344;2024-02-23T07:32:00;1.80;;;1.23;;
46363;SDS011;32071;49.036;9.344;2024-02-23T07:34:25;2.17;;;0.90;;
46363;SDS011;32071;49.036;9.344;2024-02-23T07:36:51;3.60;;;1.80;;
46363;SDS011;32071;49.036;9.344;2024-02-23T07:39:17;0.77;;;0.70;;
46363;SDS011;32071;49.036;9.344;2024-02-23T07:41:43;4.93;;;2.10;;
46363;SDS011;32071;49.036;9.344;2024-02-23T07:44:09;6.33;;;3.50;;
46363;SDS011;32071;49.036;9.344;2024-02-23T07:46:34;6.07;;;3.93;;
46363;SDS011;32071;49.036;9.344;2024-02-23T07:49:00;6.13;;;2.83;;
46363;SDS011;32071;49.036;9.344;2024-02-23T07:51:25;6.53;;;3.97;;
46363;SDS011;32071;49.036;9.344;2024-02-23T07:53:51;11.67;;;5.97;;
46363;SDS011;32071;49.036;9.344;2024-02-23T07:56:16;15.83;;;8.40;;
46363;SDS011;32071;49.036;9.344;2024-02-23T07:58:42;7.30;;;4.23;;
46363;SDS011;32071;49.036;9.344;2024-02-23T08:01:08;3.57;;;1.83;;
46363;SDS011;32071;49.036;9.344;2024-02-23T08:03:33;3.17;;;1.10;;
46363;SDS011;32071;49.036;9.344;2024-02-23T08:05:59;3.90;;;1.63;;
46363;SDS011;32071;49.036;9.344;2024-02-23T08:08:25;4.37;;;2.67;;
46363;SDS011;32071;49.036;9.344;2024-02-23T08:10:52;6.40;;;2.33;;
46363;SDS011;32071;49.036;9.344;2024-02-23T08:13:18;3.53;;;1.60;;
46363;SDS011;32071;49.036;9.344;2024-02-23T08:15:44;2.23;;;0.90;;
46363;SDS011;32071;49.036;9.344;2024-02-23T08:18:09;1.17;;;0.60;;
46363;SDS011;32071;49.036;9.344;2024-02-23T08:20:35;1.70;;;0.87;;
46363;SDS011;32071;49.036;9.344;2024-02-23T08:23:01;5.30;;;0.80;;
46363;SDS011;32071;49.036;9.344;2024-02-23T08:25:27;5.77;;;1.20;;
46363;SDS011;32071;49.036;9.344;2024-02-23T08:27:55;2.30;;;0.87;;
46363;SDS011;32071;49.036;9.344;2024-02-23T08:30:21;1.57;;;1.23;;
46363;SDS011;32071;49.036;9.344;2024-02-23T08:32:47;3.20;;;1.13;;
46363;SDS011;32071;49.036;9.344;2024-02-23T08:35:13;1.00;;;0.80;;
46363;SDS011;32071;49.036;9.344;2024-02-23T08:37:40;1.93;;;0.97;;
46363;SDS011;32071;49.036;9.344;2024-02-23T08:40:07;1.73;;;0.90;;
46363;SDS011;32071;49.036;9.344;2024-02-23T08:42:33;3.83;;;1.90;;
46363;SDS011;32071;49.036;9.344;2024-02-23T08:44:59;2.07;;;1.87;;
46363;SDS011;32071;49.036;9.344;2024-02-23T08:47:24;4.10;;;1.57;;
46363;SDS011;32071;49.036;9.344;2024-02-23T08:49:53;4.20;;;1.37;;
46363;SDS011;32071;49.036;9.344;2024-02-23T08:52:18;6.03;;;1.73;;
46363;SDS011;32071;49.036;9.344;2024-02-23T08:54:44;2.10;;;1.33;;
46363;SDS011;32071;49.036;9.344;2024-02-23T08:57:09;1.13;;;1.07;;
46363;SDS011;32071;49.036;9.344;2024-02-23T08:59:35;1.97;;;1.30;;
46363;SDS011;32071;49.036;9.344;2024-02-23T09:02:01;1.40;;;1.10;;
46363;SDS011;32071;49.036;9.344;2024-02-23T09:04:27;2.10;;;0.80;;
46363;SDS011;32071;49.036;9.344;2024-02-23T09:06:53;1.80;;;0.97;;
46363;SDS011;32071;49.036;9.344;2024-02-23T09:09:19;1.90;;;1.13;;
46363;SDS011;32071;49.036;9.344;2024-02-23T09:11:44;0.67;;;0.67;;
46363;SDS011;32071;49.036;9.344;2024-02-23T09:14:10;2.10;;;1.00;;
46363;SDS011;32071;49.036;9.344;2024-02-23T09:16:36;1.20;;;0.87;;
46363;SDS011;32071;49.036;9.344;2024-02-23T09:19:01;2.20;;;0.93;;
46363;SDS011;32071;49.036;9.344;2024-02-23T09:21:27;1.70;;;1.50;;
46363;SDS011;32071;49.036;9.344;2024-02-23T09:23:52;5.37;;;1.80;;
46363;SDS011;32071;49.036;9.344;2024-02-23T09:26:18;1.10;;;0.97;;
46363;SDS011;32071;49.036;9.344;2024-02-23T09:28:43;1.73;;;1.00;;
46363;SDS011;32071;49.036;9.344;2024-02-23T09:31:10;2.10;;;1.33;;
46363;SDS011;32071;49.036;9.344;2024-02-23T09:33:36;2.03;;;1.10;;
46363;SDS011;32071;49.036;9.344;2024-02-23T09:36:01;3.90;;;1.20;;
46363;SDS011;32071;49.036;9.344;2024-02-23T09:38:27;2.73;;;1.03;;
46363;SDS011;32071;49.036;9.344;2024-02-23T09:40:53;1.00;;;0.90;;
46363;SDS011;32071;49.036;9.344;2024-02-23T09:43:20;1.70;;;1.00;;
46363;SDS011;32071;49.036;9.344;2024-02-23T09:45:47;1.90;;;0.90;;
46363;SDS011;32071;49.036;9.344;2024-02-23T09:48:17;6.03;;;0.90;;
46363;SDS011;32071;49.036;9.344;2024-02-23T09:50:44;1.47;;;1.03;;
46363;SDS011;32071;49.036;9.344;2024-02-23T09:53:11;5.80;;;1.07;;
46363;SDS011;32071;49.036;9.344;2024-02-23T09:55:38;2.00;;;0.80;;
46363;SDS011;32071;49.036;9.344;2024-02-23T09:58:04;1.23;;;0.90;;
46363;SDS011;32071;49.036;9.344;2024-02-23T10:00:31;2.93;;;0.90;;
46363;SDS011;32071;49.036;9.344;2024-02-23T10:02:59;1.50;;;0.90;;
46363;SDS011;32071;49.036;9.344;2024-02-23T10:05:29;1.20;;;0.90;;
46363;SDS011;32071;49.036;9.344;2024-02-23T10:07:56;3.27;;;1.40;;
46363;SDS011;32071;49.036;9.344;2024-02-23T10:10:32;1.90;;;1.50;;
46363;SDS011;32071;49.036;9.344;2024-02-23T10:12:59;1.63;;;0.90;;
46363;SDS011;32071;49.036;9.344;2024-02-23T10:15:25;3.73;;;1.30;;
46363;SDS011;32071;49.036;9.344;2024-02-23T10:17:51;5.20;;;1.33;;
46363;SDS011;32071;49.036;9.344;2024-02-23T10:20:16;2.47;;;1.17;;
46363;SDS011;32071;49.036;9.344;2024-02-23T10:22:42;1.47;;;1.10;;
46363;SDS011;32071;49.036;9.344;2024-02-23T10:25:09;2.37;;;1.00;;
46363;SDS011;32071;49.036;9.344;2024-02-23T10:27:34;1.63;;;1.00;;
46363;SDS011;32071;49.036;9.344;2024-02-23T10:30:00;6.43;;;1.73;;
46363;SDS011;32071;49.036;9.344;2024-02-23T10:32:25;4.00;;;1.10;;
46363;SDS011;32071;49.036;9.344;2024-02-23T10:34:55;1.83;;;1.10;;
46363;SDS011;32071;49.036;9.344;2024-02-23T10:37:25;3.10;;;1.00;;
46363;SDS011;32071;49.036;9.344;2024-02-23T10:39:54;2.37;;;1.17;;
46363;SDS011;32071;49.036;9.344;2024-02-23T10:42:23;3.07;;;1.03;;
46363;SDS011;32071;49.036;9.344;2024-02-23T10:44:51;1.53;;;1.00;;
46363;SDS011;32071;49.036;9.344;2024-02-23T10:47:17;1.43;;;1.00;;
46363;SDS011;32071;49.036;9.344;2024-02-23T10:49:45;1.37;;;0.87;;
46363;SDS011;32071;49.036;9.344;2024-02-23T10:52:11;2.70;;;0.90;;
46363;SDS011;32071;49.036;9.344;2024-02-23T10:54:40;1.47;;;0.83;;
46363;SDS011;32071;49.036;9.344;2024-02-23T10:57:06;1.00;;;1.00;;
46363;SDS011;32071;49.036;9.344;2024-02-23T10:59:32;5.23;;;1.40;;
46363;SDS011;32071;49.036;9.344;2024-02-23T11:01:58;1.73;;;0.80;;
46363;SDS011;32071;49.036;9.344;2024-02-23T11:04:26;3.33;;;1.20;;
46363;SDS011;32071;49.036;9.344;2024-02-23T11:06:53;1.40;;;0.80;;
46363;SDS011;32071;49.036;9.344;2024-02-23T11:09:21;0.67;;;0.60;;
46363;SDS011;32071;49.036;9.344;2024-02-23T11:11:57;2.43;;;0.80;;
46363;SDS011;32071;49.036;9.344;2024-02-23T11:14:32;4.00;;;1.10;;
46363;SDS011;32071;49.036;9.344;2024-02-23T11:17:00;1.33;;;0.60;;
46363;SDS011;32071;49.036;9.344;2024-02-23T11:19:39;2.13;;;0.90;;
46363;SDS011;32071;49.036;9.344;2024-02-23T11:22:09;4.80;;;0.90;;
46363;SDS011;32071;49.036;9.344;2024-02-23T11:24:34;6.07;;;1.27;;
46363;SDS011;32071;49.036;9.344;2024-02-23T11:27:12;1.70;;;1.00;;
46363;SDS011;32071;49.036;9.344;2024-02-23T11:29:40;1.43;;;0.97;;
46363;SDS011;32071;49.036;9.344;2024-02-23T11:32:14;1.53;;;0.60;;
46363;SDS011;32071;49.036;9.344;2024-02-23T11:34:41;1.70;;;0.70;;
46363;SDS011;32071;49.036;9.344;2024-02-23T11:37:07;1.40;;;0.80;;
46363;SDS011;32071;49.036;9.344;2024-02-23T11:39:35;2.70;;;0.90;;
46363;SDS011;32071;49.036;9.344;2024-02-23T11:42:04;3.17;;;1.10;;
46363;SDS011;32071;49.036;9.344;2024-02-23T11:44:30;2.70;;;1.03;;
46363;SDS011;32071;49.036;9.344;2024-02-23T11:46:56;10.23;;;1.20;;
46363;SDS011;32071;49.036;9.344;2024-02-23T11:49:29;2.50;;;1.07;;
46363;SDS011;32071;49.036;9.344;2024-02-23T11:51:55;3.10;;;1.27;;
46363;SDS011;32071;49.036;9.344;2024-02-23T11:54:21;3.67;;;1.20;;
46363;SDS011;32071;49.036;9.344;2024-02-23T11:56:47;1.90;;;1.00;;
46363;SDS011;32071;49.036;9.344;2024-02-23T11:59:14;2.90;;;1.10;;
46363;SDS011;32071;49.036;9.344;2024-02-23T12:01:40;3.40;;;0.70;;
46363;SDS011;32071;49.036;9.344;2024-02-23T12:04:06;1.10;;;0.70;;
46363;SDS011;32071;49.036;9.344;2024-02-23T12:06:32;2.30;;;0.70;;
46363;SDS011;32071;49.036;9.344;2024-02-23T12:08:58;6.63;;;1.17;;
46363;SDS011;32071;49.036;9.344;2024-02-23T12:11:24;3.60;;;0.83;;
46363;SDS011;32071;49.036;9.344;2024-02-23T12:13:50;1.47;;;0.90;;
46363;SDS011;32071;49.036;9.344;2024-02-23T12:16:16;3.33;;;1.10;;
46363;SDS011;32071;49.036;9.344;2024-02-23T12:18:41;3.20;;;0.90;;
46363;SDS011;32071;49.036;9.344;2024-02-23T12:21:08;2.60;;;0.87;;
46363;SDS011;32071;49.036;9.344;2024-02-23T12:23:40;1.53;;;1.00;;
46363;SDS011;32071;49.036;9.344;2024-02-23T12:26:10;2.20;;;0.70;;
46363;SDS011;32071;49.036;9.344;2024-02-23T12:28:38;2.90;;;1.00;;
46363;SDS011;32071;49.036;9.344;2024-02-23T12:31:04;2.37;;;1.00;;
46363;SDS011;32071;49.036;9.344;2024-02-23T12:33:34;3.13;;;0.80;;
46363;SDS011;32071;49.036;9.344;2024-02-23T12:36:01;3.20;;;1.10;;
46363;SDS011;32071;49.036;9.344;2024-02-23T12:38:28;2.50;;;0.70;;
46363;SDS011;32071;49.036;9.344;2024-02-23T12:40:54;1.70;;;0.90;;
46363;SDS011;32071;49.036;9.344;2024-02-23T12:43:20;3.13;;;1.10;;
46363;SDS011;32071;49.036;9.344;2024-02-23T12:45:47;1.47;;;0.70;;
46363;SDS011;32071;49.036;9.344;2024-02-23T12:48:15;5.60;;;1.10;;
46363;SDS011;32071;49.036;9.344;2024-02-23T12:50:41;1.77;;;0.80;;
46363;SDS011;32071;49.036;9.344;2024-02-23T12:53:13;7.43;;;1.10;;
46363;SDS011;32071;49.036;9.344;2024-02-23T12:55:55;3.10;;;1.17;;
46363;SDS011;32071;49.036;9.344;2024-02-23T12:58:21;1.43;;;0.67;;
46363;SDS011;32071;49.036;9.344;2024-02-23T13:00:47;3.53;;;1.00;;
46363;SDS011;32071;49.036;9.344;2024-02-23T13:03:12;2.83;;;1.20;;
46363;SDS011;32071;49.036;9.344;2024-02-23T13:05:38;5.67;;;2.57;;
46363;SDS011;32071;49.036;9.344;2024-02-23T13:08:03;2.17;;;1.03;;
46363;SDS011;32071;49.036;9.344;2024-02-23T13:10:29;2.10;;;0.70;;
46363;SDS011;32071;49.036;9.344;2024-02-23T13:12:55;1.40;;;0.80;;
46363;SDS011;32071;49.036;9.344;2024-02-23T13:15:20;1.13;;;0.87;;
46363;SDS011;32071;49.036;9.344;2024-02-23T13:17:46;2.30;;;0.90;;
46363;SDS011;32071;49.036;9.344;2024-02-23T13:20:11;2.43;;;0.93;;
46363;SDS011;32071;49.036;9.344;2024-02-23T13:22:37;4.40;;;0.97;;
46363;SDS011;32071;49.036;9.344;2024-02-23T13:25:04;3.83;;;0.93;;
46363;SDS011;32071;49.036;9.344;2024-02-23T13:27:31;4.30;;;1.07;;
46363;SDS011;32071;49.036;9.344;2024-02-23T13:29:56;3.80;;;1.40;;
46363;SDS011;32071;49.036;9.344;2024-02-23T13:32:22;1.43;;;0.93;;
46363;SDS011;32071;49.036;9.344;2024-02-23T13:34:47;10.77;;;1.20;;
46363;SDS011;32071;49.036;9.344;2024-02-23T13:37:17;1.63;;;1.53;;
46363;SDS011;32071;49.036;9.344;2024-02-23T13:39:43;2.87;;;1.50;;
46363;SDS011;32071;49.036;9.344;2024-02-23T13:42:08;3.60;;;1.10;;
46363;SDS011;32071;49.036;9.344;2024-02-23T13:44:35;1.67;;;0.90;;
46363;SDS011;32071;49.036;9.344;2024-02-23T13:47:01;4.80;;;1.20;;
46363;SDS011;32071;49.036;9.344;2024-02-23T13:49:26;2.20;;;0.60;;
46363;SDS011;32071;49.036;9.344;2024-02-23T13:51:52;2.90;;;0.80;;
46363;SDS011;32071;49.036;9.344;2024-02-23T13:54:17;2.60;;;0.90;;
46363;SDS011;32071;49.036;9.344;2024-02-23T13:56:43;3.53;;;1.30;;
46363;SDS011;32071;49.036;9.344;2024-02-23T13:59:08;4.03;;;1.20;;
46363;SDS011;32071;49.036;9.344;2024-02-23T14:01:34;3.77;;;1.23;;
46363;SDS011;32071;49.036;9.344;2024-02-23T14:04:00;2.00;;;1.13;;
46363;SDS011;32071;49.036;9.344;2024-02-23T14:06:31;1.00;;;0.90;;
46363;SDS011;32071;49.036;9.344;2024-02-23T14:08:57;5.23;;;1.00;;
46363;SDS011;32071;49.036;9.344;2024-02-23T14:11:22;4.37;;;1.80;;
46363;SDS011;32071;49.036;9.344;2024-02-23T14:13:48;1.40;;;0.97;;
46363;SDS011;32071;49.036;9.344;2024-02-23T14:16:14;2.33;;;1.10;;
46363;SDS011;32071;49.036;9.344;2024-02-23T14:18:39;2.00;;;1.40;;
46363;SDS011;32071;49.036;9.344;2024-02-23T14:21:07;3.33;;;1.30;;
46363;SDS011;32071;49.036;9.344;2024-02-23T14:23:35;3.47;;;2.00;;
46363;SDS011;32071;49.036;9.344;2024-02-23T14:26:00;4.27;;;1.17;;
46363;SDS011;32071;49.036;9.344;2024-02-23T14:28:27;3.73;;;1.40;;
46363;SDS011;32071;49.036;9.344;2024-02-23T14:30:52;6.20;;;1.30;;
46363;SDS011;32071;49.036;9.344;2024-02-23T14:33:18;2.20;;;1.23;;
46363;SDS011;32071;49.036;9.344;2024-02-23T14:35:45;2.73;;;1.50;;
46363;SDS011;32071;49.036;9.344;2024-02-23T14:38:11;2.93;;;1.13;;
46363;SDS011;32071;49.036;9.344;2024-02-23T14:40:36;1.67;;;0.97;;
46363;SDS011;32071;49.036;9.344;2024-02-23T14:43:02;3.00;;;1.10;;